1995 CHRISTELLE (1994362S11054)


On this page: IBTrACS data - Map and Plots - Positions - Intensities - Original source data

Summary

Start Dec 27
End Jan 11
Basin SI
LMI 45 kt
Sources jtwc_sh
reunion
neumann
In WMO? Yes
Previous storm 1994 BOBBIE (WP)
Previous in basin 1995 ANNETTE (SI)
Concurrent storms 1994 BOBBIE (WP)
1995 CHRISTELLE (SI)
1995 WILLIAM (SP)
1995 BENTHA (SI)
1995 TD0108 (EP)
Next in basin 1995 BENTHA (SI)
Next storm 1995 WILLIAM (SP)

top of page IBTrACS Data: File Access

Image of storm

top of page Plots:

Map of storm track will not appear if FTP is down
Time series of cyclone Maximum Sustained Wind will not appear if FTP is down
Time series of cyclone Minimum Central Pressure will not appear if FTP is down

top of page Track Data:Position

jtwc_sh reunion neumann
Date Lat Lon Lat Lon Lat Lon
1994-12-27 18:00:00 -10.5 54.0
1994-12-28 00:00:00 -10.7 53.4
1994-12-28 06:00:00 -11.0 53.0
1994-12-28 12:00:00 -11.1 52.9
1994-12-28 18:00:00 -11.2 52.8
1994-12-29 00:00:00 -11.4 52.7
1994-12-29 06:00:00 -11.5 52.7
1994-12-29 12:00:00 -11.7 52.6
1994-12-29 18:00:00 -11.8 52.5
1994-12-30 00:00:00 -12.0 52.4
1994-12-30 06:00:00 -12.3 52.3
1994-12-30 12:00:00 -12.8 52.2
1994-12-30 18:00:00 -13.3 52.0
1994-12-31 00:00:00 -13.8 51.9
1994-12-31 06:00:00 -14.2 51.7
1994-12-31 12:00:00 -14.4 51.6
1994-12-31 18:00:00 -14.5 51.5
1995-01-01 00:00:00 -14.6 51.4
1995-01-01 06:00:00 -14.7 51.3
1995-01-01 12:00:00 -14.8 51.2
1995-01-01 18:00:00 -14.9 51.2
1995-01-02 00:00:00 -14.9 51.1
1995-01-02 06:00:00 -15.0 51.0
1995-01-02 12:00:00 -15.1 50.7
1995-01-02 18:00:00 -15.1 50.4
jtwc_sh reunion neumann
1995-01-03 00:00:00 -14.8 50.0
1995-01-03 06:00:00 -14.2 49.9
1995-01-03 12:00:00 -14.5 50.2
1995-01-03 18:00:00 -14.3 50.5
1995-01-04 00:00:00 -13.6 50.8
1995-01-04 06:00:00 -13.0 51.4
1995-01-04 12:00:00 -12.9 52.0
1995-01-04 18:00:00 -11.0 54.0 -12.8 52.8 -11.0 54.0
1995-01-05 00:00:00 -11.4 54.6 -12.8 53.6 -11.4 54.6
1995-01-05 06:00:00 -11.8 55.2 -12.8 54.4 -11.8 55.2
1995-01-05 12:00:00 -12.2 55.8 -12.6 55.3 -12.2 55.8
1995-01-05 18:00:00 -12.7 56.3 -12.8 55.9 -12.7 56.3
1995-01-06 00:00:00 -13.2 56.8 -13.1 56.4 -13.2 56.8
1995-01-06 06:00:00 -13.9 57.2 -13.6 56.9 -13.9 57.2
1995-01-06 12:00:00 -14.8 57.5 -14.6 57.6 -14.8 57.5
1995-01-06 18:00:00 -15.7 57.7 -16.2 57.9 -15.7 57.7
1995-01-07 00:00:00 -16.5 57.8 -17.1 57.7 -16.5 57.8
1995-01-07 06:00:00 -17.2 57.8 -17.6 57.3 -17.2 57.8
1995-01-07 12:00:00 -17.8 57.9 -17.9 57.0 -17.8 57.9
1995-01-07 18:00:00 -18.3 57.9 -18.1 56.8 -18.3 57.9
1995-01-08 00:00:00 -18.8 57.8 -18.3 56.6 -18.8 57.8
1995-01-08 06:00:00 -19.2 57.8 -18.9 56.5 -19.2 57.8
1995-01-08 12:00:00 -19.6 57.7 -19.9 56.7 -19.6 57.7
1995-01-08 18:00:00 -20.1 57.6 -20.5 57.1 -20.1 57.6
jtwc_sh reunion neumann
1995-01-09 00:00:00 -20.7 57.5 -20.5 57.3 -20.7 57.5
1995-01-09 06:00:00 -21.4 57.4 -21.0 57.7 -21.4 57.4
1995-01-09 12:00:00 -22.2 57.3 -21.8 57.6 -22.2 57.3
1995-01-09 18:00:00 -23.0 57.1 -22.9 58.0 -23.0 57.1
1995-01-10 00:00:00 -24.2 58.8
1995-01-10 06:00:00 -25.4 59.7
1995-01-10 12:00:00 -26.9 61.2
1995-01-10 18:00:00 -28.6 63.2
1995-01-11 00:00:00 -30.4 65.4
1995-01-11 06:00:00 -32.8 68.4

top of pageTrack Data:Intensity

jtwc_sh reunion neumann
Date Wind Pres Wind Pres Wind Pres
1994-12-27 18:00:00 25. 1004.
1994-12-28 00:00:00 25. 1004.
1994-12-28 06:00:00 25. 1004.
1994-12-28 12:00:00 25. 1004.
1994-12-28 18:00:00 25. 1004.
1994-12-29 00:00:00 25. 1004.
1994-12-29 06:00:00 25. 1004.
1994-12-29 12:00:00 25. 1002.
1994-12-29 18:00:00 25. 1002.
1994-12-30 00:00:00 25. 1002.
1994-12-30 06:00:00 25. 1002.
1994-12-30 12:00:00 25. 1002.
1994-12-30 18:00:00 25. 1002.
1994-12-31 00:00:00 25. 1002.
1994-12-31 06:00:00 25. 1002.
1994-12-31 12:00:00 25. 1002.
1994-12-31 18:00:00 25. 1002.
1995-01-01 00:00:00 25. 1002.
1995-01-01 06:00:00 25. 1002.
1995-01-01 12:00:00 25. 1002.
1995-01-01 18:00:00 25. 1002.
1995-01-02 00:00:00 25. 1002.
1995-01-02 06:00:00 25. 1002.
1995-01-02 12:00:00 30. 998.
1995-01-02 18:00:00 30. 998.
jtwc_sh reunion neumann
1995-01-03 00:00:00
1995-01-03 06:00:00
1995-01-03 12:00:00
1995-01-03 18:00:00 25. 1004.
1995-01-04 00:00:00 25. 1004.
1995-01-04 06:00:00 25. 1004.
1995-01-04 12:00:00 25. 1002.
1995-01-04 18:00:00 15. 25. 1002. 15.
1995-01-05 00:00:00 15. 25. 1000. 15.
1995-01-05 06:00:00 20. 30. 997. 20.
1995-01-05 12:00:00 20. 30. 995. 20.
1995-01-05 18:00:00 20. 35. 990. 20.
1995-01-06 00:00:00 25. 35. 990. 25.
1995-01-06 06:00:00 25. 35. 990. 25.
1995-01-06 12:00:00 30. 40. 988. 30.
1995-01-06 18:00:00 35. 45. 980. 35.
1995-01-07 00:00:00 40. 45. 980. 40.
1995-01-07 06:00:00 40. 45. 980. 40.
1995-01-07 12:00:00 40. 40. 985. 40.
1995-01-07 18:00:00 40. 35. 985. 40.
1995-01-08 00:00:00 40. 32. 990. 40.
1995-01-08 06:00:00 35. 32. 990. 35.
1995-01-08 12:00:00 35. 32. 992. 35.
1995-01-08 18:00:00 30. 32. 992. 30.
jtwc_sh reunion neumann
1995-01-09 00:00:00 30. 32. 992. 30.
1995-01-09 06:00:00 25. 30. 992. 25.
1995-01-09 12:00:00 25. 30. 992. 25.
1995-01-09 18:00:00 20. 30. 995. 20.
1995-01-10 00:00:00 30. 995.
1995-01-10 06:00:00 30. 995.
1995-01-10 12:00:00 30. 997.
1995-01-10 18:00:00 25. 1000.
1995-01-11 00:00:00
1995-01-11 06:00:00

top of page Links to source data

Source Source file Format
jtwc_sh bsh071995.txt ATCF
reunion WMO-Best-Tracks.txt:Line=16823:christelle WMO (old format)
neumann tracks.sh:Storm=1020:CHRISTELLE:BSH071995:JTWC HURDAT